Time;durP1;ratioP1;P1;durP2;ratioP2;P2;SDS_P1;SDS_P2;PMS_P1;PMS_P2;Temp;Humidity;BMP_temperature;BMP_pressure;BME280_temperature;BME280_humidity;BME280_pressure;Samples;Min_cycle;Max_cycle;Signal;HPM_P1;HPM_P2
2021/10/14 00:02:08;;;;;;;0.70;0.63;;;;;;;11.53;100.00;-20995.75;4955850;29;20449;-74
2021/10/14 00:04:36;;;;;;;0.70;0.60;;;;;;;11.51;100.00;-20995.06;4955365;29;20442;-73
2021/10/14 00:07:02;;;;;;;0.70;0.60;;;;;;;11.53;100.00;-20995.75;4970665;28;20516;-74
2021/10/14 00:09:29;;;;;;;0.70;0.70;;;;;;;11.63;100.00;-20998.25;4975746;28;20942;-74
2021/10/14 00:11:57;;;;;;;0.97;0.97;;;;;;;11.56;100.00;-20996.44;4990104;28;20994;-74
2021/10/14 00:14:24;;;;;;;1.00;1.00;;;;;;;11.64;100.00;-20998.66;4974547;28;20534;-73
2021/10/14 00:16:52;;;;;;;0.70;0.70;;;;;;;11.59;100.00;-20997.28;4975559;28;20760;-73
2021/10/14 00:19:21;;;;;;;0.70;0.70;;;;;;;11.64;100.00;-20998.50;4975426;28;20466;-73
2021/10/14 00:21:48;;;;;;;1.10;1.00;;;;;;;11.58;100.00;-20997.13;4975278;28;20456;-74
2021/10/14 00:24:16;;;;;;;0.80;0.70;;;;;;;11.55;100.00;-20996.16;4975646;28;20534;-73
2021/10/14 00:26:44;;;;;;;0.70;0.70;;;;;;;11.57;100.00;-20996.84;4971608;28;20467;-73
2021/10/14 00:29:11;;;;;;;0.70;0.70;;;;;;;11.52;100.00;-20995.47;4973318;28;20810;-74
2021/10/14 00:31:39;;;;;;;0.70;0.60;;;;;;;11.53;100.00;-20995.75;4973269;28;20835;-74
2021/10/14 00:34:10;;;;;;;0.70;0.60;;;;;;;11.49;100.00;-20994.66;4990173;28;20518;-74
2021/10/14 00:36:47;;;;;;;0.70;0.60;;;;;;;11.49;100.00;-20994.66;4989952;28;20471;-73
2021/10/14 00:39:21;;;;;;;0.70;0.70;;;;;;;11.50;100.00;-20994.91;4990406;28;20890;-74
2021/10/14 00:41:52;;;;;;;0.70;0.63;;;;;;;11.47;100.00;-20994.09;4989361;28;20536;-73
2021/10/14 00:44:45;;;;;;;0.70;0.60;;;;;;;11.61;100.00;-20997.97;4974554;28;20523;-73
2021/10/14 00:47:21;;;;;;;0.70;0.60;;;;;;;11.69;100.00;-20999.91;4957801;28;20458;-73
2021/10/14 00:50:14;;;;;;;1.43;0.90;;;;;;;11.52;100.00;-20995.34;4973989;28;20586;-73
2021/10/14 00:52:57;;;;;;;0.70;0.70;;;;;;;11.55;100.00;-20996.31;4974893;28;20526;-73
2021/10/14 00:55:32;;;;;;;0.70;0.70;;;;;;;11.55;100.00;-20996.31;4973140;28;20443;-74
2021/10/14 00:58:03;;;;;;;0.70;0.60;;;;;;;11.46;100.00;-20993.69;4974065;28;20407;-74
2021/10/14 01:00:38;;;;;;;0.70;0.70;;;;;;;11.47;100.00;-20993.97;4974790;28;20512;-73
2021/10/14 01:03:13;;;;;;;0.70;0.60;;;;;;;11.50;100.00;-20994.78;4969389;28;20612;-73
2021/10/14 01:05:45;;;;;;;0.70;0.60;;;;;;;11.49;100.00;-20994.66;4973993;28;20455;-73
2021/10/14 01:08:19;;;;;;;0.70;0.70;;;;;;;11.59;100.00;-20997.28;4972465;28;20471;-73
2021/10/14 01:10:52;;;;;;;0.70;0.70;;;;;;;11.57;100.00;-20996.72;4975192;28;20486;-73
2021/10/14 01:13:31;;;;;;;0.70;0.67;;;;;;;11.54;100.00;-20995.88;4974395;28;20527;-73
2021/10/14 01:16:07;;;;;;;0.70;0.60;;;;;;;11.50;100.00;-20994.78;4973401;28;20766;-73
2021/10/14 01:18:41;;;;;;;0.70;0.60;;;;;;;11.48;100.00;-20994.38;4969391;28;20852;-74
2021/10/14 01:21:15;;;;;;;0.70;0.60;;;;;;;11.48;100.00;-20994.38;4970486;28;20838;-74
2021/10/14 01:23:45;;;;;;;0.70;0.60;;;;;;;11.48;100.00;-20994.38;4989471;28;20470;-74
2021/10/14 01:26:21;;;;;;;0.70;0.70;;;;;;;11.46;100.00;-20993.81;4958264;28;20417;-74
2021/10/14 01:28:53;;;;;;;0.70;0.63;;;;;;;11.48;100.00;-20994.38;4973829;28;20821;-73
2021/10/14 01:31:46;;;;;;;0.80;0.70;;;;;;;11.49;100.00;-20994.66;4959610;28;20471;-73
2021/10/14 01:34:18;;;;;;;0.70;0.70;;;;;;;11.54;100.00;-20996.03;4973549;28;20990;-73
2021/10/14 01:36:54;;;;;;;1.67;1.03;;;;;;;11.58;100.00;-20997.13;4956427;28;20973;-73
2021/10/14 01:39:33;;;;;;;0.70;0.70;;;;;;;11.57;100.00;-20996.84;4954616;28;20450;-73
2021/10/14 01:42:01;;;;;;;0.70;0.67;;;;;;;11.48;100.00;-20994.38;4969809;28;20841;-73
2021/10/14 01:44:28;;;;;;;0.70;0.70;;;;;;;11.58;100.00;-20997.13;4953967;29;20538;-74
2021/10/14 01:46:55;;;;;;;0.70;0.60;;;;;;;11.53;100.00;-20995.63;4955200;28;20444;-74
2021/10/14 01:49:22;;;;;;;0.70;0.60;;;;;;;11.48;100.00;-20994.38;4973073;28;20448;-73
2021/10/14 01:51:51;;;;;;;0.70;0.70;;;;;;;11.50;100.00;-20994.91;4988807;28;20545;-73
2021/10/14 01:54:18;;;;;;;0.70;0.70;;;;;;;11.48;100.00;-20994.38;4989071;28;20546;-73
2021/10/14 01:56:46;;;;;;;0.70;0.70;;;;;;;11.47;100.00;-20994.09;4972933;28;20462;-73
2021/10/14 01:59:13;;;;;;;0.70;0.60;;;;;;;11.48;100.00;-20994.38;4972129;28;20453;-73
2021/10/14 02:01:40;;;;;;;0.70;0.60;;;;;;;11.54;100.00;-20995.88;4972199;28;20451;-73
2021/10/14 02:04:08;;;;;;;0.70;0.70;;;;;;;11.63;100.00;-20998.25;4973159;28;20943;-73
2021/10/14 02:06:35;;;;;;;0.70;0.70;;;;;;;11.65;100.00;-20998.94;4973566;28;20504;-74
2021/10/14 02:09:03;;;;;;;0.80;0.80;;;;;;;11.71;100.00;-21000.44;4989077;28;20449;-74
2021/10/14 02:11:51;;;;;;;0.70;0.60;;;;;;;11.71;100.00;-21000.44;4972560;28;20564;-74
2021/10/14 02:14:18;;;;;;;0.70;0.70;;;;;;;11.60;100.00;-20997.69;4974028;28;20432;-73
2021/10/14 02:16:45;;;;;;;0.70;0.70;;;;;;;11.69;100.00;-21000.03;4972325;28;20444;-73
2021/10/14 02:19:13;;;;;;;0.70;0.60;;;;;;;11.70;100.00;-21000.31;4973229;28;20447;-73
2021/10/14 02:21:40;;;;;;;0.70;0.67;;;;;;;11.74;100.00;-21001.28;4972396;28;20434;-73
2021/10/14 02:24:10;;;;;;;0.70;0.60;;;;;;;11.67;100.00;-20999.34;4972032;28;20472;-72
2021/10/14 02:26:39;;;;;;;0.70;0.60;;;;;;;11.76;100.00;-21001.97;4973868;28;20441;-73
2021/10/14 02:29:12;;;;;;;0.70;0.70;;;;;;;11.73;100.00;-21001.13;4973949;28;20424;-73
2021/10/14 02:31:40;;;;;;;0.70;0.60;;;;;;;11.65;100.00;-20998.78;4973880;28;20971;-73
2021/10/14 02:34:06;;;;;;;0.70;0.70;;;;;;;11.64;100.00;-20998.50;4972683;28;20795;-73
2021/10/14 02:36:34;;;;;;;0.70;0.70;;;;;;;11.61;100.00;-20997.97;4971326;28;20463;-73
2021/10/14 02:39:01;;;;;;;0.70;0.70;;;;;;;11.55;100.00;-20996.16;4988652;28;20484;-74
2021/10/14 02:41:30;;;;;;;0.70;0.70;;;;;;;11.64;100.00;-20998.66;4973760;28;20441;-74
2021/10/14 02:44:00;;;;;;;0.70;0.70;;;;;;;11.57;100.00;-20996.84;4973441;28;20571;-74
2021/10/14 02:46:27;;;;;;;0.70;0.70;;;;;;;11.62;100.00;-20998.09;4973277;28;20443;-74
2021/10/14 02:48:54;;;;;;;0.70;0.60;;;;;;;11.61;100.00;-20997.97;4972080;28;20439;-74
2021/10/14 02:51:22;;;;;;;0.80;0.80;;;;;;;11.69;100.00;-21000.03;4972409;28;20451;-74
2021/10/14 02:53:49;;;;;;;0.70;0.60;;;;;;;11.67;100.00;-20999.47;4975983;28;20510;-74
2021/10/14 02:56:18;;;;;;;0.70;0.70;;;;;;;11.70;100.00;-21000.31;4992399;28;20463;-74
2021/10/14 02:58:47;;;;;;;0.70;0.60;;;;;;;11.66;100.00;-20999.22;4992165;28;20429;-74
2021/10/14 03:01:14;;;;;;;0.70;0.60;;;;;;;11.57;100.00;-20996.84;4976077;28;20955;-74
2021/10/14 03:03:45;;;;;;;0.70;0.60;;;;;;;11.72;100.00;-21000.72;4973555;28;20449;-74
2021/10/14 03:06:12;;;;;;;0.70;0.67;;;;;;;11.67;100.00;-20999.34;4974998;28;20867;-74
2021/10/14 03:08:39;;;;;;;0.70;0.70;;;;;;;11.69;100.00;-20999.91;4969083;28;21016;-74
2021/10/14 03:11:07;;;;;;;0.70;0.60;;;;;;;11.63;100.00;-20998.25;4968811;28;20500;-74
2021/10/14 03:13:34;;;;;;;0.70;0.60;;;;;;;11.65;100.00;-20998.94;4975527;28;20566;-74
2021/10/14 03:16:06;;;;;;;0.70;0.60;;;;;;;11.56;100.00;-20996.59;4976495;28;20490;-74
2021/10/14 03:18:34;;;;;;;0.70;0.60;;;;;;;11.51;100.00;-20995.19;4991454;28;20458;-74
2021/10/14 03:21:01;;;;;;;0.70;0.70;;;;;;;11.43;100.00;-20993.00;4991565;28;20420;-74
2021/10/14 03:23:29;;;;;;;0.73;0.70;;;;;;;11.30;100.00;-20989.41;4974279;28;20882;-74
2021/10/14 03:25:56;;;;;;;0.70;0.60;;;;;;;11.24;100.00;-20987.88;4991507;28;20505;-74
2021/10/14 03:28:23;;;;;;;0.70;0.60;;;;;;;11.29;100.00;-20989.13;4974357;28;20444;-74
2021/10/14 03:30:50;;;;;;;0.70;0.60;;;;;;;11.11;100.00;-20984.41;4971645;28;20464;-74
2021/10/14 03:33:20;;;;;;;0.70;0.60;;;;;;;11.09;100.00;-20983.88;4973910;28;20822;-74
2021/10/14 03:35:47;;;;;;;0.70;0.70;;;;;;;11.11;100.00;-20984.41;4991257;28;20441;-74
2021/10/14 03:38:14;;;;;;;0.70;0.60;;;;;;;11.10;100.00;-20984.16;4976150;28;21047;-74
2021/10/14 03:40:42;;;;;;;0.70;0.60;;;;;;;11.07;100.00;-20983.19;4975235;28;20439;-74
2021/10/14 03:43:09;;;;;;;3.80;1.23;;;;;;;11.17;100.00;-20985.81;4974927;28;21007;-74
2021/10/14 03:45:36;;;;;;;0.80;0.80;;;;;;;11.18;100.00;-20986.22;4971207;28;20945;-74
2021/10/14 03:48:04;;;;;;;0.70;0.70;;;;;;;11.26;100.00;-20988.28;4967981;28;20521;-74
2021/10/14 03:50:35;;;;;;;0.80;0.80;;;;;;;11.18;100.00;-20986.22;4976297;28;20516;-74
2021/10/14 03:53:02;;;;;;;0.70;0.60;;;;;;;11.31;100.00;-20989.69;4975837;28;20963;-74
2021/10/14 03:55:32;;;;;;;0.70;0.67;;;;;;;11.24;100.00;-20987.75;4974306;28;20432;-74
2021/10/14 03:57:59;;;;;;;0.70;0.60;;;;;;;11.16;100.00;-20985.66;4975972;28;20945;-74
2021/10/14 04:00:26;;;;;;;0.70;0.60;;;;;;;11.10;100.00;-20984.16;4990519;28;20911;-74
2021/10/14 04:02:54;;;;;;;0.70;0.60;;;;;;;11.12;100.00;-20984.56;4954843;28;20920;-74
2021/10/14 04:05:21;;;;;;;0.70;0.60;;;;;;;11.16;100.00;-20985.53;4970219;28;20456;-74
2021/10/14 04:07:50;;;;;;;0.70;0.60;;;;;;;11.22;100.00;-20987.19;4977720;28;20466;-74
2021/10/14 04:10:17;;;;;;;0.70;0.70;;;;;;;11.19;100.00;-20986.34;4976151;28;20418;-74
2021/10/14 04:12:43;;;;;;;0.80;0.70;;;;;;;11.20;100.00;-20986.63;4975217;28;20569;-74
2021/10/14 04:15:11;;;;;;;1.27;1.17;;;;;;;11.25;100.00;-20988.00;4958146;28;20443;-74
2021/10/14 04:17:38;;;;;;;0.70;0.60;;;;;;;11.25;100.00;-20988.00;4975746;28;20803;-74
2021/10/14 04:20:06;;;;;;;0.77;0.77;;;;;;;11.27;100.00;-20988.72;4973361;28;20444;-74
2021/10/14 04:22:33;;;;;;;0.70;0.70;;;;;;;11.20;100.00;-20986.63;4990286;28;20462;-74
2021/10/14 04:25:02;;;;;;;0.70;0.70;;;;;;;11.24;100.00;-20987.75;4975544;28;20466;-74
2021/10/14 04:27:29;;;;;;;0.70;0.70;;;;;;;11.17;100.00;-20985.81;4975598;28;20529;-74
2021/10/14 04:29:56;;;;;;;0.70;0.60;;;;;;;11.15;100.00;-20985.38;4975618;28;20425;-74
2021/10/14 04:32:23;;;;;;;0.70;0.70;;;;;;;11.03;100.00;-20982.22;4954854;28;20444;-74
2021/10/14 04:34:51;;;;;;;0.70;0.60;;;;;;;11.02;100.00;-20981.94;4965481;28;20441;-74
2021/10/14 04:37:18;;;;;;;0.70;0.60;;;;;;;11.06;100.00;-20983.03;4974633;28;20462;-75
2021/10/14 04:39:50;;;;;;;0.70;0.70;;;;;;;10.85;100.00;-20977.22;4974253;28;20501;-74
2021/10/14 04:42:19;;;;;;;0.70;0.70;;;;;;;10.80;100.00;-20975.97;4974252;28;20475;-74
2021/10/14 04:44:46;;;;;;;0.70;0.63;;;;;;;10.81;100.00;-20976.13;4975143;28;20448;-74
2021/10/14 04:47:18;;;;;;;0.70;0.60;;;;;;;10.79;100.00;-20975.56;4990093;28;20479;-75
2021/10/14 04:49:45;;;;;;;0.70;0.60;;;;;;;10.73;100.00;-20973.91;4973645;28;20420;-74
2021/10/14 04:52:12;;;;;;;0.70;0.60;;;;;;;10.71;100.00;-20973.34;4974062;28;20439;-74
2021/10/14 04:54:39;;;;;;;0.70;0.60;;;;;;;10.70;100.00;-20973.22;4973832;28;20835;-74
2021/10/14 04:57:07;;;;;;;0.70;0.60;;;;;;;10.76;100.00;-20974.75;4973721;28;20435;-74
2021/10/14 04:59:35;;;;;;;0.70;0.70;;;;;;;10.79;100.00;-20975.72;4971106;28;20460;-74
2021/10/14 05:02:02;;;;;;;0.70;0.60;;;;;;;10.80;100.00;-20975.84;4972855;28;20451;-74
2021/10/14 05:04:30;;;;;;;0.70;0.70;;;;;;;10.84;100.00;-20976.94;4975183;28;20434;-74
2021/10/14 05:06:57;;;;;;;0.70;0.60;;;;;;;10.85;100.00;-20977.38;4973515;28;20443;-74
2021/10/14 05:09:24;;;;;;;0.70;0.60;;;;;;;10.80;100.00;-20975.97;4974016;28;20480;-74
2021/10/14 05:11:51;;;;;;;0.70;0.70;;;;;;;10.89;100.00;-20978.34;4958597;28;20539;-74
2021/10/14 05:14:19;;;;;;;0.70;0.70;;;;;;;10.89;100.00;-20978.47;4961204;28;20459;-74
2021/10/14 05:16:48;;;;;;;0.70;0.60;;;;;;;10.92;100.00;-20979.16;4973333;28;20525;-74
2021/10/14 05:19:15;;;;;;;0.70;0.63;;;;;;;11.08;100.00;-20983.59;4973288;28;20471;-74
2021/10/14 05:21:42;;;;;;;0.70;0.70;;;;;;;11.05;100.00;-20982.75;4972739;28;20506;-74
2021/10/14 05:24:09;;;;;;;0.73;0.70;;;;;;;11.12;100.00;-20984.56;4974208;28;21029;-75
2021/10/14 05:26:36;;;;;;;0.70;0.60;;;;;;;11.18;100.00;-20986.22;4973883;28;20439;-74
2021/10/14 05:29:04;;;;;;;0.70;0.60;;;;;;;11.20;100.00;-20986.78;4989480;28;20440;-74
2021/10/14 05:31:31;;;;;;;0.70;0.60;;;;;;;11.19;100.00;-20986.34;4974690;28;20416;-74
2021/10/14 05:34:00;;;;;;;0.70;0.60;;;;;;;11.23;100.00;-20987.47;4973564;28;20515;-74
2021/10/14 05:36:27;;;;;;;0.70;0.60;;;;;;;11.31;100.00;-20989.69;4989569;28;20821;-75
2021/10/14 05:38:54;;;;;;;0.70;0.60;;;;;;;11.23;100.00;-20987.47;4973601;28;20478;-74
2021/10/14 05:41:21;;;;;;;0.70;0.60;;;;;;;11.43;100.00;-20993.00;4974901;28;20943;-74
2021/10/14 05:43:49;;;;;;;0.70;0.60;;;;;;;11.31;100.00;-20989.69;4957916;28;20794;-74
2021/10/14 05:46:16;;;;;;;0.70;0.60;;;;;;;11.36;100.00;-20991.06;4974027;28;20485;-74
2021/10/14 05:48:43;;;;;;;0.70;0.63;;;;;;;11.34;100.00;-20990.50;4974205;28;20445;-74
2021/10/14 05:51:12;;;;;;;1.23;1.10;;;;;;;11.32;100.00;-20989.94;4988296;28;20456;-75
2021/10/14 05:53:39;;;;;;;0.83;0.80;;;;;;;11.30;100.00;-20989.41;4969179;28;20491;-74
2021/10/14 05:56:07;;;;;;;0.70;0.60;;;;;;;11.20;100.00;-20986.63;4972594;28;20453;-73
2021/10/14 05:58:33;;;;;;;0.70;0.70;;;;;;;11.28;100.00;-20988.97;4973776;28;20421;-73
2021/10/14 06:01:00;;;;;;;0.70;0.70;;;;;;;11.32;100.00;-20989.94;4973450;28;20446;-73
2021/10/14 06:03:28;;;;;;;0.70;0.63;;;;;;;11.35;100.00;-20990.78;4973132;28;20474;-73
2021/10/14 06:05:55;;;;;;;0.70;0.60;;;;;;;11.36;100.00;-20991.19;4973567;28;20465;-74
2021/10/14 06:08:24;;;;;;;0.70;0.60;;;;;;;11.46;100.00;-20993.69;4974361;28;20463;-73
2021/10/14 06:10:52;;;;;;;0.70;0.63;;;;;;;11.36;100.00;-20991.06;4974581;28;20887;-74
2021/10/14 06:13:20;;;;;;;0.70;0.70;;;;;;;11.54;100.00;-20995.88;4957512;28;20468;-75
2021/10/14 06:15:47;;;;;;;0.70;0.63;;;;;;;11.47;100.00;-20994.09;4973501;28;20852;-73
2021/10/14 06:18:19;;;;;;;0.70;0.70;;;;;;;11.54;100.00;-20996.03;4972580;28;21082;-74
2021/10/14 06:20:47;;;;;;;0.70;0.70;;;;;;;11.42;100.00;-20992.56;4970926;28;20473;-73
2021/10/14 06:23:14;;;;;;;0.77;0.70;;;;;;;11.41;100.00;-20992.44;4986773;28;20848;-73
2021/10/14 06:26:07;;;;;;;0.70;0.70;;;;;;;11.49;100.00;-20994.66;4984322;28;20419;-73
2021/10/14 06:28:34;;;;;;;0.83;0.83;;;;;;;11.40;100.00;-20992.16;4975182;28;20426;-73
2021/10/14 06:31:01;;;;;;;0.70;0.60;;;;;;;11.40;100.00;-20992.16;4976217;28;20495;-73
2021/10/14 06:33:29;;;;;;;0.70;0.60;;;;;;;11.48;100.00;-20994.38;4975389;28;20554;-74
2021/10/14 06:35:56;;;;;;;1.17;1.07;;;;;;;11.45;100.00;-20993.41;4959427;28;20982;-73
2021/10/14 06:38:23;;;;;;;0.80;0.80;;;;;;;11.55;100.00;-20996.16;4978054;28;20477;-73
2021/10/14 06:40:50;;;;;;;0.70;0.60;;;;;;;11.64;100.00;-20998.66;4978150;28;20416;-73
2021/10/14 06:43:21;;;;;;;0.80;0.70;;;;;;;11.57;100.00;-20996.84;4978689;28;20427;-73
2021/10/14 06:45:49;;;;;;;0.70;0.70;;;;;;;11.49;100.00;-20994.66;4981081;28;20450;-74
2021/10/14 06:48:16;;;;;;;0.70;0.60;;;;;;;11.33;100.00;-20990.34;4976492;28;20461;-73
2021/10/14 06:50:43;;;;;;;1.73;1.63;;;;;;;11.46;100.00;-20993.81;4978494;28;20434;-73
2021/10/14 06:53:11;;;;;;;0.80;0.80;;;;;;;11.30;100.00;-20989.41;4976505;28;20505;-75
2021/10/14 06:55:39;;;;;;;0.70;0.60;;;;;;;11.31;100.00;-20989.69;4967314;28;20460;-75
2021/10/14 06:58:07;;;;;;;0.70;0.60;;;;;;;11.38;100.00;-20991.59;4957656;28;20447;-73
2021/10/14 07:00:36;;;;;;;0.70;0.60;;;;;;;11.39;100.00;-20991.75;4976414;28;20447;-73
2021/10/14 07:03:03;;;;;;;0.70;0.70;;;;;;;11.37;100.00;-20991.47;4977227;28;20480;-73
2021/10/14 07:05:33;;;;;;;0.70;0.60;;;;;;;11.40;100.00;-20992.16;4976244;28;20559;-74
2021/10/14 07:08:00;;;;;;;0.70;0.60;;;;;;;11.36;100.00;-20991.19;4977077;28;20982;-74
2021/10/14 07:10:27;;;;;;;0.70;0.70;;;;;;;11.39;100.00;-20991.88;4976645;28;20421;-74
2021/10/14 07:12:54;;;;;;;0.70;0.70;;;;;;;11.48;100.00;-20994.38;4977462;28;20441;-73
2021/10/14 07:15:21;;;;;;;0.83;0.80;;;;;;;11.50;100.00;-20994.78;4959475;28;20991;-73
2021/10/14 07:17:53;;;;;;;0.70;0.63;;;;;;;11.57;100.00;-20996.84;4975328;28;20444;-74
2021/10/14 07:20:20;;;;;;;0.70;0.60;;;;;;;11.54;100.00;-20996.03;4977315;28;20486;-73
2021/10/14 07:22:48;;;;;;;0.70;0.63;;;;;;;11.57;100.00;-20996.84;4976985;28;20455;-74
2021/10/14 07:25:15;;;;;;;0.70;0.63;;;;;;;11.57;100.00;-20996.84;4975655;28;20552;-74
2021/10/14 07:27:43;;;;;;;0.90;0.90;;;;;;;11.56;100.00;-20996.44;4975555;28;20448;-73
2021/10/14 07:30:12;;;;;;;0.70;0.70;;;;;;;11.69;100.00;-20999.91;4971956;28;20439;-74
2021/10/14 07:32:39;;;;;;;0.90;0.90;;;;;;;11.56;100.00;-20996.59;4976655;28;20529;-73
2021/10/14 07:35:08;;;;;;;0.90;0.80;;;;;;;11.57;100.00;-20996.84;4976100;28;20463;-73
2021/10/14 07:37:39;;;;;;;0.70;0.60;;;;;;;11.70;100.00;-21000.16;4976481;28;20524;-73
2021/10/14 07:40:08;;;;;;;0.70;0.60;;;;;;;11.85;100.00;-21004.47;4976322;28;20430;-73
2021/10/14 07:42:35;;;;;;;0.70;0.70;;;;;;;11.89;100.00;-21005.44;4977081;28;20428;-73
2021/10/14 07:45:03;;;;;;;0.70;0.60;;;;;;;11.96;100.00;-21007.34;4975204;28;20416;-73
2021/10/14 07:47:30;;;;;;;0.70;0.70;;;;;;;11.93;100.00;-21006.53;4974298;28;20450;-73
2021/10/14 07:49:56;;;;;;;0.70;0.60;;;;;;;11.90;100.00;-21005.69;4971754;28;20457;-74
2021/10/14 07:52:25;;;;;;;0.70;0.70;;;;;;;11.85;100.00;-21004.31;4988968;28;20461;-73
2021/10/14 07:54:52;;;;;;;0.70;0.60;;;;;;;11.86;100.00;-21004.59;4976756;28;20927;-73
2021/10/14 07:57:19;;;;;;;1.00;0.90;;;;;;;11.81;100.00;-21003.34;4991741;28;20446;-75
2021/10/14 07:59:47;;;;;;;0.80;0.80;;;;;;;11.91;100.00;-21005.84;4990817;28;20446;-74
2021/10/14 08:02:15;;;;;;;0.70;0.70;;;;;;;12.00;100.00;-21008.31;4984603;28;20430;-73
2021/10/14 08:04:44;;;;;;;0.70;0.70;;;;;;;12.04;100.00;-21009.56;4980270;28;20553;-73
2021/10/14 08:07:12;;;;;;;0.80;0.70;;;;;;;12.08;100.00;-21010.69;4991361;28;20452;-74
2021/10/14 08:09:40;;;;;;;0.70;0.60;;;;;;;12.18;100.00;-21013.16;4991037;28;20443;-74
2021/10/14 08:12:07;;;;;;;0.80;0.80;;;;;;;12.29;100.00;-21016.34;4991253;28;20921;-74
2021/10/14 08:14:35;;;;;;;0.70;0.70;;;;;;;12.29;100.00;-21016.34;4975808;28;20968;-73
2021/10/14 08:17:01;;;;;;;0.80;0.70;;;;;;;12.28;100.00;-21015.91;4974416;28;20747;-74
2021/10/14 08:19:28;;;;;;;0.70;0.60;;;;;;;12.30;100.00;-21016.47;4975314;28;20436;-74
2021/10/14 08:21:57;;;;;;;1.57;1.47;;;;;;;12.28;100.00;-21015.91;4975861;28;20479;-73
2021/10/14 08:24:25;;;;;;;0.80;0.70;;;;;;;12.35;100.00;-21017.84;4976013;28;20448;-74
2021/10/14 08:26:53;;;;;;;1.13;1.03;;;;;;;12.33;100.00;-21017.28;4976034;28;20429;-73
2021/10/14 08:29:20;;;;;;;0.70;0.63;;;;;;;12.23;100.00;-21014.53;4974724;28;20485;-72
2021/10/14 08:31:47;;;;;;;0.70;0.70;;;;;;;12.36;100.00;-21018.13;4960718;28;20994;-73
2021/10/14 08:34:14;;;;;;;0.80;0.80;;;;;;;12.40;100.00;-21019.22;4956459;28;20540;-73
2021/10/14 08:36:43;;;;;;;0.87;0.87;;;;;;;12.48;100.00;-21021.44;4961134;28;20533;-73
2021/10/14 08:39:10;;;;;;;0.70;0.60;;;;;;;12.56;100.00;-21023.66;4974857;28;20447;-73
2021/10/14 08:41:39;;;;;;;0.70;0.60;;;;;;;12.52;100.00;-21022.53;4975906;28;20846;-74
2021/10/14 08:44:08;;;;;;;1.10;1.00;;;;;;;12.52;100.00;-21022.41;4975134;28;20511;-74
2021/10/14 08:46:37;;;;;;;0.70;0.60;;;;;;;12.60;100.00;-21024.63;4974441;28;20453;-73
2021/10/14 08:49:08;;;;;;;0.90;0.87;;;;;;;12.81;100.00;-21030.28;4973867;28;20454;-74
2021/10/14 08:51:35;;;;;;;0.70;0.60;;;;;;;12.84;100.00;-21030.97;4975098;28;20449;-74
2021/10/14 08:54:02;;;;;;;0.70;0.70;;;;;;;12.72;100.00;-21027.78;4989530;28;20997;-73
2021/10/14 08:56:29;;;;;;;0.80;0.70;;;;;;;12.97;100.00;-21034.69;4955442;28;20442;-74
2021/10/14 08:58:56;;;;;;;0.70;0.63;;;;;;;13.26;100.00;-21042.41;4990495;28;20420;-74
2021/10/14 09:01:25;;;;;;;0.70;0.70;;;;;;;13.26;100.00;-21042.41;4989632;28;20448;-74
2021/10/14 09:03:54;;;;;;;0.80;0.73;;;;;;;13.16;100.00;-21039.78;4974255;28;20432;-74
2021/10/14 09:06:21;;;;;;;0.70;0.70;;;;;;;13.04;100.00;-21036.47;4975436;28;20456;-74
2021/10/14 09:08:50;;;;;;;0.70;0.60;;;;;;;13.23;100.00;-21041.56;4973082;28;20464;-74
2021/10/14 09:11:21;;;;;;;0.80;0.80;;;;;;;13.26;100.00;-21042.56;4961923;28;20489;-73
2021/10/14 09:13:51;;;;;;;1.03;0.90;;;;;;;13.52;100.00;-21049.56;4987897;28;20448;-73
2021/10/14 09:16:23;;;;;;;0.73;0.70;;;;;;;13.57;100.00;-21050.69;4974800;28;20415;-74
2021/10/14 09:18:52;;;;;;;0.70;0.70;;;;;;;13.57;100.00;-21050.81;4975129;28;20508;-73
2021/10/14 09:21:24;;;;;;;0.80;0.70;;;;;;;13.69;100.00;-21054.00;4973594;28;20555;-73
2021/10/14 09:23:52;;;;;;;0.77;0.77;;;;;;;13.56;100.00;-21050.53;4972648;28;20457;-74
2021/10/14 09:26:31;;;;;;;0.70;0.70;;;;;;;13.44;100.00;-21047.38;4967248;28;20449;-73
2021/10/14 09:29:08;;;;;;;0.70;0.70;;;;;;;13.22;100.00;-21041.31;4972440;28;20449;-75
2021/10/14 09:31:50;;;;;;;0.70;0.60;;;;;;;13.06;100.00;-21037.16;4971129;28;20428;-72
2021/10/14 09:34:27;;;;;;;0.80;0.80;;;;;;;12.96;100.00;-21034.28;4971876;28;20469;-73
2021/10/14 09:36:54;;;;;;;0.70;0.70;;;;;;;12.93;100.00;-21033.59;4971742;28;20493;-74
2021/10/14 09:39:21;;;;;;;0.70;0.70;;;;;;;13.05;100.00;-21036.75;4955719;28;20454;-74
2021/10/14 09:41:49;;;;;;;1.07;0.97;;;;;;;13.13;100.00;-21038.81;4972933;28;20443;-74
2021/10/14 09:44:49;;;;;;;0.70;0.67;;;;;;;13.28;100.00;-21043.09;5006032;28;20442;-75
2021/10/14 09:47:16;;;;;;;0.70;0.70;;;;;;;13.12;100.00;-21038.53;4971327;28;21014;-73
2021/10/14 09:49:45;;;;;;;0.70;0.60;;;;;;;13.51;100.00;-21049.31;4953726;29;20421;-74
2021/10/14 09:52:12;;;;;;;0.70;0.70;;;;;;;13.40;100.00;-21046.13;4955281;28;20421;-74
2021/10/14 09:54:42;;;;;;;0.70;0.70;;;;;;;13.78;100.00;-21056.47;4967525;28;20488;-75
2021/10/14 09:57:08;;;;;;;0.70;0.70;;;;;;;13.70;100.00;-21054.25;4973374;28;20825;-74
2021/10/14 09:59:36;;;;;;;1.17;1.07;;;;;;;13.87;100.00;-21058.81;4973272;28;20460;-74
2021/10/14 10:02:04;;;;;;;0.70;0.70;;;;;;;14.20;100.00;-21067.91;4960599;28;20509;-74
2021/10/14 10:04:32;;;;;;;0.70;0.70;;;;;;;14.26;100.00;-21069.41;4972676;28;20554;-74
2021/10/14 10:07:04;;;;;;;0.70;0.70;;;;;;;14.48;100.00;-21075.47;4993548;28;20439;-74
2021/10/14 10:09:39;;;;;;;0.70;0.60;;;;;;;14.52;100.00;-21076.44;4964582;28;20498;-74
2021/10/14 10:12:10;;;;;;;0.70;0.70;;;;;;;14.87;100.00;-21085.94;4958202;28;20854;-74
2021/10/14 10:14:36;;;;;;;0.70;0.70;;;;;;;14.78;100.00;-21083.47;4959142;28;20467;-74
2021/10/14 10:17:07;;;;;;;0.80;0.70;;;;;;;14.78;100.00;-21083.47;4942089;28;20884;-74
2021/10/14 10:19:40;;;;;;;0.80;0.80;;;;;;;15.42;100.00;-21100.78;4960405;28;20964;-74
2021/10/14 10:22:10;;;;;;;2.50;0.90;;;;;;;15.66;100.00;-21107.13;4993065;28;20443;-74
2021/10/14 10:24:40;;;;;;;0.70;0.70;;;;;;;15.55;100.00;-21104.09;4976765;28;20444;-74
2021/10/14 10:27:08;;;;;;;0.70;0.67;;;;;;;15.54;100.00;-21103.81;4993163;28;20990;-74
2021/10/14 10:29:45;;;;;;;0.87;0.87;;;;;;;15.46;100.00;-21101.88;4978294;28;20958;-74
2021/10/14 10:32:17;;;;;;;0.80;0.80;;;;;;;15.88;100.00;-21113.16;4963020;28;20445;-74
2021/10/14 10:34:54;;;;;;;0.80;0.70;;;;;;;15.88;100.00;-21113.03;4977282;28;20560;-74
2021/10/14 10:40:16;;;;;;;0.80;0.70;;;;;;;15.97;100.00;-21115.38;4959069;28;20919;-74
2021/10/14 10:42:47;;;;;;;0.70;0.63;;;;;;;16.20;100.00;-21121.69;4957524;29;20432;-74
2021/10/14 10:45:17;;;;;;;0.73;0.67;;;;;;;15.78;100.00;-21110.41;4976057;28;20435;-74
2021/10/14 10:47:54;;;;;;;0.73;0.70;;;;;;;15.77;100.00;-21110.13;4976299;28;20496;-74
2021/10/14 10:50:24;;;;;;;0.80;0.70;;;;;;;15.78;100.00;-21110.28;4992631;28;20478;-74
2021/10/14 10:53:03;;;;;;;0.80;0.70;;;;;;;16.22;100.00;-21122.22;4976677;28;20517;-74
2021/10/14 10:55:39;;;;;;;0.70;0.70;;;;;;;16.38;100.00;-21126.47;4976142;28;20557;-73
2021/10/14 10:58:08;;;;;;;0.70;0.70;;;;;;;16.56;100.00;-21131.44;4976668;28;20446;-74
2021/10/14 11:00:36;;;;;;;1.47;1.10;;;;;;;16.46;100.00;-21128.53;4975167;28;20415;-73
2021/10/14 11:03:21;;;;;;;1.10;1.00;;;;;;;16.54;100.00;-21130.75;4976949;28;20443;-73
2021/10/14 11:05:51;;;;;;;0.80;0.70;;;;;;;16.56;100.00;-21131.44;4960203;28;20439;-74
2021/10/14 11:08:22;;;;;;;0.70;0.70;;;;;;;16.69;100.00;-21134.88;4974810;28;20479;-74
2021/10/14 11:10:52;;;;;;;0.80;0.70;;;;;;;16.27;100.00;-21123.59;4976658;28;20435;-74
2021/10/14 11:13:19;;;;;;;0.70;0.70;;;;;;;15.72;100.00;-21108.75;4975011;28;20486;-73
2021/10/14 11:15:52;;;;;;;0.80;0.70;;;;;;;15.60;100.00;-21105.59;4975906;28;20470;-74
2021/10/14 11:18:21;;;;;;;0.80;0.80;;;;;;;15.88;100.00;-21113.16;4966411;28;20503;-74
2021/10/14 11:20:53;;;;;;;0.70;0.60;;;;;;;15.75;100.00;-21109.44;4957712;28;20491;-74
2021/10/14 11:23:23;;;;;;;0.80;0.70;;;;;;;15.59;100.00;-21105.19;4969542;28;20540;-73
2021/10/14 11:26:02;;;;;;;0.77;0.63;;;;;;;15.34;100.00;-21098.44;4976121;28;20986;-73
2021/10/14 11:28:29;;;;;;;0.73;0.73;;;;;;;15.35;100.00;-21098.88;4956592;28;21033;-74
2021/10/14 11:31:00;;;;;;;1.00;0.90;;;;;;;15.38;100.00;-21099.69;4949848;28;20534;-74